createdAt,value
2022-10-29T00:01:49.846Z,5.33
2022-10-29T00:04:51.417Z,5.50
2022-10-29T00:07:53.139Z,6.07
2022-10-29T00:10:54.945Z,5.80
2022-10-29T00:13:57.817Z,5.80
2022-10-29T00:16:59.436Z,5.57
2022-10-29T00:20:01.062Z,6.00
2022-10-29T00:23:02.675Z,6.10
2022-10-29T00:26:04.827Z,5.90
2022-10-29T00:29:06.538Z,5.67
2022-10-29T00:32:10.070Z,6.17
2022-10-29T00:35:11.743Z,5.73
2022-10-29T00:38:13.274Z,5.60
2022-10-29T00:41:17.364Z,5.47
2022-10-29T00:44:18.904Z,5.53
2022-10-29T00:47:29.155Z,5.60
2022-10-29T00:50:30.697Z,5.97
2022-10-29T00:53:34.350Z,5.57
2022-10-29T00:56:38.033Z,5.87
2022-10-29T00:59:40.721Z,5.70
2022-10-29T01:02:43.584Z,5.50
2022-10-29T01:05:45.767Z,5.90
2022-10-29T01:08:47.316Z,5.83
2022-10-29T01:11:48.912Z,5.93
2022-10-29T01:15:07.333Z,5.80
2022-10-29T01:18:12.031Z,5.67
2022-10-29T01:21:13.591Z,5.80
2022-10-29T01:24:35.921Z,5.60
2022-10-29T01:27:37.602Z,5.53
2022-10-29T01:30:48.050Z,5.20
2022-10-29T01:33:52.649Z,5.23
2022-10-29T01:36:58.571Z,5.30
2022-10-29T01:40:06.259Z,5.80
2022-10-29T01:43:11.725Z,6.00
2022-10-29T01:46:17.765Z,5.80
2022-10-29T01:49:23.055Z,5.77
2022-10-29T01:52:26.285Z,5.53
2022-10-29T01:55:35.207Z,5.73
2022-10-29T01:58:37.917Z,5.50
2022-10-29T02:01:57.893Z,5.20
2022-10-29T02:05:15.928Z,5.30
2022-10-29T02:08:32.805Z,5.60
2022-10-29T02:11:37.131Z,4.93
2022-10-29T02:14:40.917Z,5.10
2022-10-29T02:17:42.480Z,5.73
2022-10-29T02:20:45.408Z,5.83
2022-10-29T02:23:47.265Z,6.67
2022-10-29T02:26:48.949Z,6.00
2022-10-29T02:29:50.516Z,5.87
2022-10-29T02:32:52.107Z,5.80
2022-10-29T02:35:53.693Z,5.83
2022-10-29T02:38:55.300Z,5.57
2022-10-29T02:41:57.066Z,5.60
2022-10-29T02:44:58.622Z,6.27
2022-10-29T02:48:00.329Z,5.53
2022-10-29T02:51:01.883Z,5.90
2022-10-29T02:54:03.556Z,6.17
2022-10-29T02:57:05.431Z,5.53
2022-10-29T03:00:07.347Z,5.40
2022-10-29T03:03:08.923Z,4.97
2022-10-29T03:06:14.502Z,6.30
2022-10-29T03:09:16.122Z,5.83
2022-10-29T03:12:17.767Z,6.00
2022-10-29T03:15:19.385Z,5.30
2022-10-29T03:18:21.049Z,5.47
2022-10-29T03:21:22.646Z,5.27
2022-10-29T03:24:24.263Z,5.73
2022-10-29T03:27:25.796Z,5.90
2022-10-29T03:30:27.539Z,5.40
2022-10-29T03:33:29.112Z,5.73
2022-10-29T03:36:30.808Z,5.83
2022-10-29T03:39:33.520Z,6.20
2022-10-29T03:42:35.139Z,5.93
2022-10-29T03:45:36.783Z,5.40
2022-10-29T03:48:38.440Z,6.00
2022-10-29T03:51:40.138Z,6.70
2022-10-29T03:54:41.759Z,6.80
2022-10-29T03:57:43.330Z,6.70
2022-10-29T04:00:45.136Z,6.27
2022-10-29T04:03:46.868Z,7.50
2022-10-29T04:06:48.455Z,7.80
2022-10-29T04:09:49.981Z,8.33
2022-10-29T04:12:51.531Z,8.50
2022-10-29T04:15:54.527Z,8.60
2022-10-29T04:18:56.097Z,6.87
2022-10-29T04:28:43.324Z,6.47
2022-10-29T04:31:45.567Z,6.53
2022-10-29T04:34:47.112Z,7.73
2022-10-29T04:37:48.738Z,6.77
2022-10-29T04:40:50.333Z,7.10
2022-10-29T04:43:51.960Z,6.73
2022-10-29T04:46:53.527Z,7.22
2022-10-29T04:49:55.180Z,6.80
2022-10-29T04:53:00.719Z,7.17
2022-10-29T04:56:03.546Z,7.40
2022-10-29T04:59:05.071Z,7.80
2022-10-29T05:02:06.657Z,8.70
2022-10-29T05:05:08.488Z,8.17
2022-10-29T05:08:10.619Z,8.00
2022-10-29T05:11:12.187Z,7.87
2022-10-29T05:14:13.759Z,7.37
2022-10-29T05:17:15.323Z,7.63
2022-10-29T05:20:17.012Z,8.80
2022-10-29T05:23:18.586Z,8.27
2022-10-29T05:26:20.193Z,7.87
2022-10-29T05:29:21.786Z,7.50
2022-10-29T05:32:24.092Z,7.50
2022-10-29T05:35:27.927Z,8.83
2022-10-29T05:38:31.603Z,7.90
2022-10-29T05:41:46.303Z,8.17
2022-10-29T05:44:48.013Z,6.70
2022-10-29T05:47:55.050Z,7.00
2022-10-29T05:50:59.674Z,6.67
2022-10-29T05:54:01.438Z,6.27
2022-10-29T05:57:03.059Z,6.43
2022-10-29T06:00:04.968Z,8.93
2022-10-29T06:03:18.112Z,7.33
2022-10-29T06:06:19.836Z,6.10
2022-10-29T06:09:21.387Z,6.10
2022-10-29T06:12:23.095Z,7.67
2022-10-29T06:15:24.767Z,7.20
2022-10-29T06:18:26.891Z,8.27
2022-10-29T06:21:28.595Z,8.17
2022-10-29T06:24:30.308Z,8.40
2022-10-29T06:27:32.010Z,8.50
2022-10-29T06:30:34.377Z,8.33
2022-10-29T06:33:36.115Z,7.50
2022-10-29T06:36:37.788Z,8.23
2022-10-29T06:39:39.377Z,7.77
2022-10-29T06:42:41.012Z,7.23
2022-10-29T06:45:42.561Z,7.20
2022-10-29T06:48:44.154Z,8.70
2022-10-29T06:51:45.699Z,8.33
2022-10-29T06:54:47.316Z,8.77
2022-10-29T06:57:55.537Z,8.13
2022-10-29T07:00:59.975Z,8.37
2022-10-29T07:04:01.719Z,7.73
2022-10-29T07:07:03.276Z,6.93
2022-10-29T07:10:05.124Z,6.77
2022-10-29T07:13:06.700Z,6.90
2022-10-29T07:16:08.272Z,6.63
2022-10-29T07:19:09.899Z,7.20
2022-10-29T07:22:17.818Z,7.17
2022-10-29T07:25:19.532Z,7.70
2022-10-29T07:28:23.093Z,7.50
2022-10-29T07:31:24.960Z,9.23
2022-10-29T07:34:26.568Z,7.57
2022-10-29T07:37:28.183Z,9.30
2022-10-29T07:40:29.845Z,8.40
2022-10-29T07:43:31.395Z,8.53
2022-10-29T07:46:33.028Z,16.70
2022-10-29T07:49:34.601Z,7.00
2022-10-29T07:52:37.081Z,6.28
2022-10-29T07:55:51.612Z,7.10
2022-10-29T07:58:53.338Z,7.13
2022-10-29T08:01:54.953Z,6.80
2022-10-29T08:04:56.724Z,6.43
2022-10-29T08:07:58.826Z,7.30
2022-10-29T08:11:01.541Z,7.20
2022-10-29T08:14:03.109Z,6.97
2022-10-29T08:17:04.701Z,6.75
2022-10-29T08:20:06.596Z,6.38
2022-10-29T08:23:08.483Z,6.90
2022-10-29T08:26:10.229Z,6.47
2022-10-29T08:29:11.773Z,8.88
2022-10-29T08:32:13.396Z,5.85
2022-10-29T08:35:15.300Z,4.15
2022-10-29T08:38:16.956Z,3.72
2022-10-29T08:41:37.147Z,4.55
2022-10-29T08:44:44.802Z,5.13
2022-10-29T08:47:46.387Z,3.47
2022-10-29T08:50:51.268Z,3.25
2022-10-29T08:54:24.681Z,3.03
2022-10-29T08:57:16.614Z,3.15
2022-10-29T09:00:31.355Z,2.50
2022-10-29T09:03:33.752Z,2.72
2022-10-29T09:06:38.152Z,3.03
2022-10-29T09:10:03.961Z,3.20
2022-10-29T09:13:24.326Z,3.95
2022-10-29T09:16:26.408Z,2.90
2022-10-29T09:19:28.072Z,2.47
2022-10-29T09:22:35.448Z,2.30
2022-10-29T09:25:50.848Z,2.80
2022-10-29T09:29:02.688Z,2.60
2022-10-29T09:32:07.616Z,2.90
2022-10-29T09:35:17.266Z,2.30
2022-10-29T09:38:22.219Z,2.70
2022-10-29T09:41:26.563Z,3.20
2022-10-29T09:44:40.335Z,3.40
2022-10-29T09:48:04.414Z,3.57
2022-10-29T09:51:38.269Z,3.00
2022-10-29T09:54:39.899Z,2.73
2022-10-29T09:57:41.538Z,3.77
2022-10-29T10:00:43.113Z,22.77
2022-10-29T10:03:47.403Z,4.33
2022-10-29T10:07:04.337Z,3.30
2022-10-29T10:10:19.524Z,2.63
2022-10-29T10:13:26.174Z,3.10
2022-10-29T10:16:30.224Z,2.10
2022-10-29T10:19:32.516Z,2.60
2022-10-29T10:22:34.123Z,2.20
2022-10-29T10:25:39.118Z,2.63
2022-10-29T10:28:40.668Z,2.50
2022-10-29T10:31:43.413Z,2.63
2022-10-29T10:34:44.956Z,2.27
2022-10-29T10:37:46.696Z,2.07
2022-10-29T10:40:55.424Z,2.43
2022-10-29T10:44:01.498Z,1.83
2022-10-29T10:47:07.030Z,2.40
2022-10-29T10:50:28.732Z,2.50
2022-10-29T10:53:30.476Z,2.33
2022-10-29T10:56:32.508Z,1.93
2022-10-29T10:59:43.490Z,2.77
2022-10-29T11:03:03.645Z,2.00
2022-10-29T11:06:12.816Z,2.27
2022-10-29T11:09:14.333Z,2.17
2022-10-29T11:12:24.292Z,2.13
2022-10-29T11:15:25.821Z,1.97
2022-10-29T11:18:39.498Z,2.30
2022-10-29T11:21:43.844Z,2.00
2022-10-29T11:25:03.440Z,1.90
2022-10-29T11:28:13.872Z,2.03
2022-10-29T11:31:32.146Z,2.00
2022-10-29T11:34:39.917Z,1.77
2022-10-29T11:37:58.953Z,1.60
2022-10-29T11:41:05.147Z,1.90
2022-10-29T11:44:12.182Z,1.60
2022-10-29T11:47:36.692Z,1.77
2022-10-29T11:50:44.598Z,1.50
2022-10-29T11:54:01.004Z,1.73
2022-10-29T11:57:11.265Z,1.60
2022-10-29T12:00:17.703Z,2.37
2022-10-29T12:03:31.691Z,1.77
2022-10-29T12:06:33.385Z,1.87
2022-10-29T12:09:45.429Z,1.70
2022-10-29T12:12:46.975Z,2.47
2022-10-29T12:15:56.468Z,2.20
2022-10-29T12:19:16.430Z,2.77
2022-10-29T12:22:18.177Z,1.80
2022-10-29T12:25:25.872Z,1.70
2022-10-29T12:28:46.330Z,1.50
2022-10-29T12:32:04.940Z,1.90
2022-10-29T12:35:12.575Z,1.30
2022-10-29T12:38:16.922Z,1.40
2022-10-29T12:41:26.735Z,1.60
2022-10-29T12:44:34.722Z,1.97
2022-10-29T12:47:40.165Z,2.23
2022-10-29T12:50:47.750Z,1.70
2022-10-29T12:54:07.888Z,1.60
2022-10-29T12:57:12.467Z,1.50
2022-10-29T13:00:22.857Z,5.13
2022-10-29T13:03:42.941Z,1.20
2022-10-29T13:06:55.826Z,1.70
2022-10-29T13:10:16.023Z,2.07
2022-10-29T13:13:17.708Z,2.00
2022-10-29T13:16:21.176Z,1.60
2022-10-29T13:19:29.343Z,1.30
2022-10-29T13:22:51.110Z,1.50
2022-10-29T13:25:52.677Z,2.23
2022-10-29T13:28:54.649Z,1.80
2022-10-29T13:32:00.667Z,2.40
2022-10-29T13:35:06.310Z,2.13
2022-10-29T13:38:12.164Z,1.57
2022-10-29T13:41:13.755Z,1.73
2022-10-29T13:44:25.490Z,2.07
2022-10-29T13:47:28.359Z,1.93
2022-10-29T13:50:30.058Z,1.63
2022-10-29T13:53:38.555Z,2.07
2022-10-29T13:56:45.711Z,2.90
2022-10-29T13:59:47.235Z,3.73
2022-10-29T14:02:57.715Z,4.27
2022-10-29T14:06:06.713Z,2.93
2022-10-29T14:09:13.407Z,7.50
2022-10-29T14:12:17.514Z,3.70
2022-10-29T14:15:19.139Z,4.47
2022-10-29T14:18:24.740Z,6.23
2022-10-29T14:21:27.668Z,5.30
2022-10-29T14:24:37.027Z,7.50
2022-10-29T14:27:38.645Z,8.27
2022-10-29T14:30:40.243Z,8.63
2022-10-29T14:33:42.552Z,11.07
2022-10-29T14:36:45.825Z,9.63
2022-10-29T14:39:58.031Z,10.47
2022-10-29T14:43:01.599Z,9.87
2022-10-29T14:46:32.685Z,8.70
2022-10-29T14:49:38.806Z,8.50
2022-10-29T14:52:42.966Z,10.27
2022-10-29T14:55:46.101Z,8.47
2022-10-29T14:58:48.075Z,9.30
2022-10-29T15:01:56.771Z,7.43
2022-10-29T15:05:07.220Z,7.70
2022-10-29T15:08:09.294Z,7.37
2022-10-29T15:11:29.367Z,7.67
2022-10-29T15:14:30.900Z,9.23
2022-10-29T15:17:32.534Z,8.97
2022-10-29T15:20:46.065Z,7.43
2022-10-29T15:23:48.164Z,8.77
2022-10-29T15:26:51.540Z,8.27
2022-10-29T15:29:53.968Z,10.67
2022-10-29T15:32:58.527Z,10.47
2022-10-29T15:36:01.923Z,14.67
2022-10-29T15:39:19.453Z,13.83
2022-10-29T15:42:22.066Z,15.03
2022-10-29T15:45:23.661Z,20.80
2022-10-29T15:48:30.522Z,24.73
2022-10-29T15:51:32.106Z,38.13
2022-10-29T15:54:33.802Z,35.50
2022-10-29T15:57:35.456Z,21.43
2022-10-29T16:00:37.307Z,19.40
2022-10-29T16:03:39.514Z,16.63
2022-10-29T16:06:41.186Z,20.47
2022-10-29T16:09:45.224Z,21.43
2022-10-29T16:12:47.777Z,20.10
2022-10-29T16:15:49.567Z,20.20
2022-10-29T16:18:51.500Z,25.63
2022-10-29T16:21:56.656Z,20.87
2022-10-29T16:24:59.840Z,18.23
2022-10-29T16:28:01.615Z,18.30
2022-10-29T16:31:03.293Z,19.10
2022-10-29T16:34:05.275Z,19.13
2022-10-29T16:37:09.785Z,18.47
2022-10-29T16:40:11.844Z,20.07
2022-10-29T16:43:13.493Z,27.87
2022-10-29T16:46:15.543Z,22.53
2022-10-29T16:49:17.123Z,19.30
2022-10-29T16:52:22.436Z,20.50
2022-10-29T16:55:26.185Z,17.47
2022-10-29T16:58:27.757Z,21.87
2022-10-29T17:01:29.314Z,20.07
2022-10-29T17:04:31.019Z,19.23
2022-10-29T17:07:32.647Z,8.30
2022-10-29T17:10:34.691Z,8.30
2022-10-29T17:13:36.522Z,20.00
2022-10-29T17:16:38.231Z,10.83
2022-10-29T17:19:39.802Z,6.73
2022-10-29T17:22:41.392Z,6.50
2022-10-29T17:25:42.979Z,7.53
2022-10-29T17:28:44.561Z,12.37
2022-10-29T17:31:46.156Z,6.13
2022-10-29T17:34:47.774Z,7.43
2022-10-29T17:37:49.395Z,6.80
2022-10-29T17:40:50.934Z,7.77
2022-10-29T17:43:52.532Z,7.80
2022-10-29T17:46:54.694Z,7.30
2022-10-29T17:49:56.334Z,9.93
2022-10-29T17:52:58.019Z,9.40
2022-10-29T17:56:00.390Z,7.97
2022-10-29T17:59:02.035Z,9.63
2022-10-29T18:02:03.713Z,7.60
2022-10-29T18:05:05.521Z,6.87
2022-10-29T18:08:07.129Z,14.27
2022-10-29T18:11:14.418Z,8.00
2022-10-29T18:14:16.060Z,7.43
2022-10-29T18:17:17.695Z,7.60
2022-10-29T18:20:19.320Z,10.77
2022-10-29T18:23:20.941Z,13.53
2022-10-29T18:26:26.933Z,5.23
2022-10-29T18:29:28.573Z,6.13
2022-10-29T18:32:30.235Z,5.50
2022-10-29T18:35:31.874Z,7.50
2022-10-29T18:38:33.539Z,7.17
2022-10-29T18:41:35.619Z,6.90
2022-10-29T18:44:38.397Z,6.70
2022-10-29T18:47:39.975Z,6.00
2022-10-29T18:50:41.603Z,5.77
2022-10-29T18:53:43.259Z,6.70
2022-10-29T18:56:44.845Z,6.90
2022-10-29T18:59:46.452Z,5.70
2022-10-29T19:02:48.029Z,5.17
2022-10-29T19:05:49.640Z,5.23
2022-10-29T19:08:51.561Z,5.03
2022-10-29T19:11:55.413Z,6.07
2022-10-29T19:14:59.996Z,5.73
2022-10-29T19:18:01.793Z,4.97
2022-10-29T19:21:10.991Z,4.73
2022-10-29T19:24:14.349Z,4.93
2022-10-29T19:27:15.983Z,4.53
2022-10-29T19:30:17.835Z,4.70
2022-10-29T19:33:19.483Z,4.23
2022-10-29T19:36:22.053Z,4.40
2022-10-29T19:39:23.620Z,4.53
2022-10-29T19:42:25.236Z,4.23
2022-10-29T19:45:26.896Z,4.70
2022-10-29T19:48:28.519Z,4.87
2022-10-29T19:51:30.137Z,5.00
2022-10-29T19:54:31.726Z,4.60
2022-10-29T19:57:33.288Z,4.37
2022-10-29T20:00:34.896Z,4.30
2022-10-29T20:03:36.584Z,4.00
2022-10-29T20:06:38.220Z,4.47
2022-10-29T20:09:39.803Z,5.43
2022-10-29T20:12:41.426Z,4.77
2022-10-29T20:15:43.013Z,5.60
2022-10-29T20:18:44.872Z,4.70
2022-10-29T20:21:46.436Z,5.10
2022-10-29T20:24:48.053Z,5.83
2022-10-29T20:27:49.616Z,5.13
2022-10-29T20:30:51.375Z,6.37
2022-10-29T20:33:54.044Z,6.30
2022-10-29T20:36:55.753Z,6.03
2022-10-29T20:39:58.377Z,5.07
2022-10-29T20:43:00.039Z,5.33
2022-10-29T20:46:02.452Z,5.57
2022-10-29T20:49:03.994Z,5.23
2022-10-29T20:52:07.204Z,4.93
2022-10-29T20:55:08.868Z,5.40
2022-10-29T20:58:10.521Z,5.07
2022-10-29T21:01:13.328Z,5.00
2022-10-29T21:04:15.147Z,4.80
2022-10-29T21:07:16.761Z,4.97
2022-10-29T21:10:18.384Z,4.70
2022-10-29T21:13:19.964Z,4.80
2022-10-29T21:16:22.889Z,5.40
2022-10-29T21:19:25.847Z,4.20
2022-10-29T21:22:27.491Z,4.80
2022-10-29T21:25:29.173Z,5.03
2022-10-29T21:28:30.805Z,3.87
2022-10-29T21:31:32.399Z,4.80
2022-10-29T21:34:34.026Z,5.33
2022-10-29T21:37:35.667Z,5.33
2022-10-29T21:40:37.295Z,5.27
2022-10-29T21:43:39.027Z,6.00
2022-10-29T21:46:40.587Z,6.40
2022-10-29T21:49:42.256Z,5.93
2022-10-29T21:52:43.858Z,7.67
2022-10-29T21:55:45.485Z,6.90
2022-10-29T21:58:47.088Z,7.13
2022-10-29T22:01:48.819Z,5.77
2022-10-29T22:04:50.497Z,6.07
2022-10-29T22:07:53.702Z,5.47
2022-10-29T22:10:58.844Z,5.33
2022-10-29T22:14:00.406Z,5.80
2022-10-29T22:17:02.038Z,5.13
2022-10-29T22:20:04.224Z,5.40
2022-10-29T22:23:05.936Z,5.20
2022-10-29T22:26:08.207Z,5.53
2022-10-29T22:29:09.870Z,4.90
2022-10-29T22:32:11.532Z,5.60
2022-10-29T22:35:13.200Z,4.70
2022-10-29T22:38:14.998Z,5.07
2022-10-29T22:41:18.311Z,4.43
2022-10-29T22:44:24.619Z,4.60
2022-10-29T22:47:26.269Z,4.47
2022-10-29T22:50:27.847Z,4.60
2022-10-29T22:53:29.686Z,4.03
2022-10-29T22:56:31.301Z,4.43
2022-10-29T22:59:32.899Z,4.53
2022-10-29T23:02:34.604Z,4.10
2022-10-29T23:05:36.263Z,4.50
2022-10-29T23:08:37.859Z,4.47
2022-10-29T23:11:39.536Z,5.00
2022-10-29T23:14:41.151Z,4.30
2022-10-29T23:17:42.829Z,4.50
2022-10-29T23:20:44.480Z,5.30
2022-10-29T23:23:46.431Z,5.00
2022-10-29T23:26:47.977Z,4.80
2022-10-29T23:29:49.569Z,4.43
2022-10-29T23:32:51.112Z,4.40
2022-10-29T23:35:52.755Z,4.60
2022-10-29T23:38:58.519Z,4.23
2022-10-29T23:42:00.074Z,4.50
2022-10-29T23:45:06.844Z,4.90
2022-10-29T23:48:09.993Z,4.83
2022-10-29T23:51:11.825Z,5.33
2022-10-29T23:54:13.387Z,5.20
2022-10-29T23:57:15.003Z,4.80
